New Mighty — 3FMN — position and weather

sailwx.info

Track history (hours):
 
Tides and Currents Weather Stations Pressure Air Temp Water Temp Dewpoint Dewpoint Depression Visibility Wind Speed Wind Dir Waves Ship Positions

New Mighty

Last reported at 2014-Oct-30 23:14 UTC. Time now 2014-Nov-01 06:59 UTC.
Position N 37°57' E 123°52'.

Length 292 m; draft 18.2 m.

Type: Cargo ship. MMSI: 354199000.

Date/timePositionNaut miles runAvg speedWind from/ knotsBaromVisibWave heightAir tempDewpointWater temp
2014-Oct-30 23:14N 37°57' E 123°52'1014.2
2014-Oct-30 22:33N 38°07' E 123°51'  
2014-Oct-25 01:27N 38°21' E 123°52'1112.2
2014-Oct-25 00:33N 38°10' E 123°51'1312.7
2014-Oct-24 23:32N 37°57' E 123°49'1412.9
2014-Oct-24 22:26N 37°43' E 123°48'1313.0
2014-Oct-24 21:28N 37°30' E 123°46'1212.8
2014-Oct-24 20:33N 37°18' E 123°45'2412.0
2014-Oct-24 18:32N 36°54' E 123°43'1111.8
2014-Oct-24 17:34N 36°43' E 123°41'1211.9
2014-Oct-24 16:33N 36°31' E 123°40'1211.9
2014-Oct-24 15:34N 36°19' E 123°39'1211.7
2014-Oct-24 14:31N 36°07' E 123°38'1111.5
2014-Oct-24 13:33N 35°56' E 123°37'2411.2
2014-Oct-24 11:24N 35°32' E 123°34'12112.2
2014-Oct-24 01:30N 33°32' E 123°22'1411.4
2014-Oct-24 00:18N 33°18' E 123°21'810.6
2014-Oct-23 23:33N 33°10' E 123°20'1310.2
2014-Oct-23 22:17N 32°57' E 123°19'910.4
2014-Oct-23 21:25N 32°48' E 123°18'  
Track history (hours):
 
Tides and Currents Weather Stations Pressure Air Temp Water Temp Dewpoint Dewpoint Depression Visibility Wind Speed Wind Dir Waves Ship Positions

New Mighty

Last reported at 2014-Oct-30 23:14 UTC. Time now 2014-Nov-01 06:59 UTC.
Position N 37°57' E 123°52'.

Length 292 m; draft 18.2 m.

Type: Cargo ship. MMSI: 354199000.

Date/timePositionNaut miles runAvg speedWind from/ knotsBaromVisibWave heightAir tempDewpointWater temp
2014-Oct-30 23:14N 37°57' E 123°52'1014.2
2014-Oct-30 22:33N 38°07' E 123°51'  
2014-Oct-25 01:27N 38°21' E 123°52'1112.2
2014-Oct-25 00:33N 38°10' E 123°51'1312.7
2014-Oct-24 23:32N 37°57' E 123°49'1412.9
2014-Oct-24 22:26N 37°43' E 123°48'1313.0
2014-Oct-24 21:28N 37°30' E 123°46'1212.8
2014-Oct-24 20:33N 37°18' E 123°45'2412.0
2014-Oct-24 18:32N 36°54' E 123°43'1111.8
2014-Oct-24 17:34N 36°43' E 123°41'1211.9
2014-Oct-24 16:33N 36°31' E 123°40'1211.9
2014-Oct-24 15:34N 36°19' E 123°39'1211.7
2014-Oct-24 14:31N 36°07' E 123°38'1111.5
2014-Oct-24 13:33N 35°56' E 123°37'2411.2
2014-Oct-24 11:24N 35°32' E 123°34'12112.2
2014-Oct-24 01:30N 33°32' E 123°22'1411.4
2014-Oct-24 00:18N 33°18' E 123°21'810.6
2014-Oct-23 23:33N 33°10' E 123°20'1310.2
2014-Oct-23 22:17N 32°57' E 123°19'910.4
2014-Oct-23 21:25N 32°48' E 123°18'  

Dump ship's entire track history